sensor_id;sensor_type;location;lat;lon;timestamp;P1;durP1;ratioP1;P2;durP2;ratioP2
9082;SDS011;4577;48.704;9.000;2023-02-24T00:01:16;58.10;;;36.87;;
9082;SDS011;4577;48.704;9.000;2023-02-24T00:03:55;50.13;;;28.53;;
9082;SDS011;4577;48.704;9.000;2023-02-24T00:06:22;33.37;;;19.20;;
9082;SDS011;4577;48.704;9.000;2023-02-24T00:08:49;34.10;;;18.03;;
9082;SDS011;4577;48.704;9.000;2023-02-24T00:11:15;30.17;;;19.27;;
9082;SDS011;4577;48.704;9.000;2023-02-24T00:13:42;27.97;;;18.67;;
9082;SDS011;4577;48.704;9.000;2023-02-24T00:16:11;29.63;;;18.53;;
9082;SDS011;4577;48.704;9.000;2023-02-24T00:18:40;27.03;;;18.53;;
9082;SDS011;4577;48.704;9.000;2023-02-24T00:21:07;27.50;;;18.60;;
9082;SDS011;4577;48.704;9.000;2023-02-24T00:23:38;27.77;;;18.40;;
9082;SDS011;4577;48.704;9.000;2023-02-24T00:26:06;25.20;;;18.57;;
9082;SDS011;4577;48.704;9.000;2023-02-24T00:28:32;26.47;;;18.40;;
9082;SDS011;4577;48.704;9.000;2023-02-24T00:31:02;34.50;;;18.50;;
9082;SDS011;4577;48.704;9.000;2023-02-24T00:33:34;33.10;;;18.70;;
9082;SDS011;4577;48.704;9.000;2023-02-24T00:36:12;32.17;;;19.87;;
9082;SDS011;4577;48.704;9.000;2023-02-24T00:38:40;29.73;;;19.73;;
9082;SDS011;4577;48.704;9.000;2023-02-24T00:41:16;31.27;;;19.00;;
9082;SDS011;4577;48.704;9.000;2023-02-24T00:43:43;29.53;;;18.13;;
9082;SDS011;4577;48.704;9.000;2023-02-24T00:46:20;27.43;;;19.00;;
9082;SDS011;4577;48.704;9.000;2023-02-24T00:48:49;29.83;;;18.77;;
9082;SDS011;4577;48.704;9.000;2023-02-24T00:51:19;25.73;;;18.87;;
9082;SDS011;4577;48.704;9.000;2023-02-24T00:53:50;30.77;;;19.60;;
9082;SDS011;4577;48.704;9.000;2023-02-24T00:56:23;30.70;;;20.30;;
9082;SDS011;4577;48.704;9.000;2023-02-24T00:58:51;35.40;;;20.40;;
9082;SDS011;4577;48.704;9.000;2023-02-24T01:01:19;33.20;;;21.13;;
9082;SDS011;4577;48.704;9.000;2023-02-24T01:03:47;36.17;;;20.87;;
9082;SDS011;4577;48.704;9.000;2023-02-24T01:06:16;32.63;;;20.97;;
9082;SDS011;4577;48.704;9.000;2023-02-24T01:08:46;35.23;;;21.73;;
9082;SDS011;4577;48.704;9.000;2023-02-24T01:11:13;34.07;;;22.63;;
9082;SDS011;4577;48.704;9.000;2023-02-24T01:14:03;31.43;;;21.80;;
9082;SDS011;4577;48.704;9.000;2023-02-24T01:16:32;41.00;;;23.30;;
9082;SDS011;4577;48.704;9.000;2023-02-24T01:18:58;34.57;;;21.63;;
9082;SDS011;4577;48.704;9.000;2023-02-24T01:21:24;35.50;;;22.83;;
9082;SDS011;4577;48.704;9.000;2023-02-24T01:23:51;42.83;;;25.87;;
9082;SDS011;4577;48.704;9.000;2023-02-24T01:26:17;43.50;;;28.53;;
9082;SDS011;4577;48.704;9.000;2023-02-24T01:28:44;44.53;;;27.83;;
9082;SDS011;4577;48.704;9.000;2023-02-24T01:31:14;50.07;;;27.40;;
9082;SDS011;4577;48.704;9.000;2023-02-24T01:33:42;46.33;;;25.80;;
9082;SDS011;4577;48.704;9.000;2023-02-24T01:38:36;37.10;;;23.07;;
9082;SDS011;4577;48.704;9.000;2023-02-24T01:41:03;32.60;;;21.57;;
9082;SDS011;4577;48.704;9.000;2023-02-24T01:43:33;36.13;;;21.77;;
9082;SDS011;4577;48.704;9.000;2023-02-24T01:46:32;36.60;;;21.17;;
9082;SDS011;4577;48.704;9.000;2023-02-24T01:49:11;33.83;;;21.57;;
9082;SDS011;4577;48.704;9.000;2023-02-24T01:51:59;33.37;;;20.07;;
9082;SDS011;4577;48.704;9.000;2023-02-24T01:54:38;29.93;;;20.40;;
9082;SDS011;4577;48.704;9.000;2023-02-24T01:57:14;34.73;;;21.33;;
9082;SDS011;4577;48.704;9.000;2023-02-24T01:59:44;34.10;;;21.33;;
9082;SDS011;4577;48.704;9.000;2023-02-24T02:02:11;34.67;;;22.27;;
9082;SDS011;4577;48.704;9.000;2023-02-24T02:04:40;35.00;;;21.40;;
9082;SDS011;4577;48.704;9.000;2023-02-24T02:07:16;33.10;;;21.57;;
9082;SDS011;4577;48.704;9.000;2023-02-24T02:09:44;38.13;;;22.50;;
9082;SDS011;4577;48.704;9.000;2023-02-24T02:12:11;39.37;;;21.70;;
9082;SDS011;4577;48.704;9.000;2023-02-24T02:14:38;31.00;;;20.87;;
9082;SDS011;4577;48.704;9.000;2023-02-24T02:25:57;32.97;;;22.43;;
9082;SDS011;4577;48.704;9.000;2023-02-24T02:37:04;36.90;;;24.10;;
9082;SDS011;4577;48.704;9.000;2023-02-24T02:42:39;40.97;;;24.97;;
9082;SDS011;4577;48.704;9.000;2023-02-24T02:47:53;40.80;;;24.57;;
9082;SDS011;4577;48.704;9.000;2023-02-24T02:50:44;37.93;;;24.77;;
9082;SDS011;4577;48.704;9.000;2023-02-24T02:56:17;36.93;;;23.37;;
9082;SDS011;4577;48.704;9.000;2023-02-24T02:58:50;43.83;;;24.57;;
9082;SDS011;4577;48.704;9.000;2023-02-24T03:01:19;47.20;;;27.87;;
9082;SDS011;4577;48.704;9.000;2023-02-24T03:03:49;50.63;;;26.50;;
9082;SDS011;4577;48.704;9.000;2023-02-24T03:08:52;40.00;;;25.03;;
9082;SDS011;4577;48.704;9.000;2023-02-24T03:11:23;39.13;;;24.50;;
9082;SDS011;4577;48.704;9.000;2023-02-24T03:13:49;35.43;;;24.57;;
9082;SDS011;4577;48.704;9.000;2023-02-24T03:16:18;40.20;;;25.73;;
9082;SDS011;4577;48.704;9.000;2023-02-24T03:18:55;43.60;;;27.17;;
9082;SDS011;4577;48.704;9.000;2023-02-24T03:23:53;38.77;;;23.80;;
9082;SDS011;4577;48.704;9.000;2023-02-24T03:26:29;39.30;;;24.07;;
9082;SDS011;4577;48.704;9.000;2023-02-24T03:31:30;35.53;;;24.00;;
9082;SDS011;4577;48.704;9.000;2023-02-24T03:36:57;40.60;;;25.10;;
9082;SDS011;4577;48.704;9.000;2023-02-24T03:39:23;42.50;;;25.53;;
9082;SDS011;4577;48.704;9.000;2023-02-24T03:41:54;42.37;;;25.10;;
9082;SDS011;4577;48.704;9.000;2023-02-24T03:44:25;40.63;;;25.20;;
9082;SDS011;4577;48.704;9.000;2023-02-24T03:46:52;41.03;;;27.10;;
9082;SDS011;4577;48.704;9.000;2023-02-24T03:49:20;50.93;;;29.47;;
9082;SDS011;4577;48.704;9.000;2023-02-24T03:52:15;41.83;;;25.10;;
9082;SDS011;4577;48.704;9.000;2023-02-24T03:54:58;51.07;;;28.53;;
9082;SDS011;4577;48.704;9.000;2023-02-24T03:58:10;46.63;;;28.27;;
9082;SDS011;4577;48.704;9.000;2023-02-24T04:03:54;58.80;;;29.43;;
9082;SDS011;4577;48.704;9.000;2023-02-24T04:12:03;64.63;;;29.50;;
9082;SDS011;4577;48.704;9.000;2023-02-24T04:14:56;61.00;;;31.10;;
9082;SDS011;4577;48.704;9.000;2023-02-24T04:17:33;70.80;;;31.43;;
9082;SDS011;4577;48.704;9.000;2023-02-24T04:20:03;65.60;;;30.33;;
9082;SDS011;4577;48.704;9.000;2023-02-24T04:22:37;67.93;;;31.27;;
9082;SDS011;4577;48.704;9.000;2023-02-24T04:25:05;63.87;;;31.50;;
9082;SDS011;4577;48.704;9.000;2023-02-24T04:27:37;69.67;;;32.20;;
9082;SDS011;4577;48.704;9.000;2023-02-24T04:30:05;67.80;;;31.93;;
9082;SDS011;4577;48.704;9.000;2023-02-24T04:32:35;57.97;;;31.30;;
9082;SDS011;4577;48.704;9.000;2023-02-24T04:35:08;61.90;;;31.70;;
9082;SDS011;4577;48.704;9.000;2023-02-24T04:37:36;67.97;;;32.17;;
9082;SDS011;4577;48.704;9.000;2023-02-24T04:40:04;81.30;;;30.93;;
9082;SDS011;4577;48.704;9.000;2023-02-24T04:42:37;68.43;;;31.93;;
9082;SDS011;4577;48.704;9.000;2023-02-24T04:45:10;96.97;;;32.20;;
9082;SDS011;4577;48.704;9.000;2023-02-24T04:47:40;71.77;;;31.83;;
9082;SDS011;4577;48.704;9.000;2023-02-24T04:50:10;81.47;;;31.80;;
9082;SDS011;4577;48.704;9.000;2023-02-24T04:52:47;78.70;;;31.67;;
9082;SDS011;4577;48.704;9.000;2023-02-24T04:55:21;78.57;;;31.23;;
9082;SDS011;4577;48.704;9.000;2023-02-24T04:57:53;70.37;;;32.30;;
9082;SDS011;4577;48.704;9.000;2023-02-24T05:00:19;80.80;;;31.90;;
9082;SDS011;4577;48.704;9.000;2023-02-24T05:02:50;67.00;;;32.30;;
9082;SDS011;4577;48.704;9.000;2023-02-24T05:05:23;62.50;;;33.10;;
9082;SDS011;4577;48.704;9.000;2023-02-24T05:07:53;62.43;;;30.93;;
9082;SDS011;4577;48.704;9.000;2023-02-24T05:10:21;72.57;;;30.30;;
9082;SDS011;4577;48.704;9.000;2023-02-24T05:12:55;62.17;;;30.90;;
9082;SDS011;4577;48.704;9.000;2023-02-24T05:15:25;61.93;;;31.60;;
9082;SDS011;4577;48.704;9.000;2023-02-24T05:17:58;59.47;;;31.47;;
9082;SDS011;4577;48.704;9.000;2023-02-24T05:20:25;52.07;;;29.37;;
9082;SDS011;4577;48.704;9.000;2023-02-24T05:23:10;56.20;;;30.20;;
9082;SDS011;4577;48.704;9.000;2023-02-24T05:25:36;54.77;;;30.50;;
9082;SDS011;4577;48.704;9.000;2023-02-24T05:28:05;56.73;;;30.67;;
9082;SDS011;4577;48.704;9.000;2023-02-24T05:30:31;60.43;;;31.40;;
9082;SDS011;4577;48.704;9.000;2023-02-24T05:32:57;51.63;;;29.50;;
9082;SDS011;4577;48.704;9.000;2023-02-24T05:35:23;54.77;;;29.63;;
9082;SDS011;4577;48.704;9.000;2023-02-24T05:37:50;58.70;;;30.63;;
9082;SDS011;4577;48.704;9.000;2023-02-24T05:40:16;57.53;;;30.10;;
9082;SDS011;4577;48.704;9.000;2023-02-24T05:42:46;57.20;;;30.57;;
9082;SDS011;4577;48.704;9.000;2023-02-24T05:45:14;56.03;;;29.77;;
9082;SDS011;4577;48.704;9.000;2023-02-24T05:47:39;53.97;;;28.70;;
9082;SDS011;4577;48.704;9.000;2023-02-24T05:50:10;59.20;;;30.87;;
9082;SDS011;4577;48.704;9.000;2023-02-24T05:52:36;54.40;;;30.10;;
9082;SDS011;4577;48.704;9.000;2023-02-24T05:55:02;56.73;;;30.03;;
9082;SDS011;4577;48.704;9.000;2023-02-24T05:57:31;50.10;;;27.90;;
9082;SDS011;4577;48.704;9.000;2023-02-24T05:59:59;54.43;;;28.90;;
9082;SDS011;4577;48.704;9.000;2023-02-24T06:02:36;49.07;;;27.20;;
9082;SDS011;4577;48.704;9.000;2023-02-24T06:05:02;48.13;;;27.20;;
9082;SDS011;4577;48.704;9.000;2023-02-24T06:07:29;57.77;;;28.47;;
9082;SDS011;4577;48.704;9.000;2023-02-24T06:09:59;53.63;;;29.03;;
9082;SDS011;4577;48.704;9.000;2023-02-24T06:14:52;54.70;;;29.00;;
9082;SDS011;4577;48.704;9.000;2023-02-24T06:17:18;56.83;;;30.77;;
9082;SDS011;4577;48.704;9.000;2023-02-24T06:19:45;57.30;;;30.33;;
9082;SDS011;4577;48.704;9.000;2023-02-24T06:22:15;55.60;;;30.10;;
9082;SDS011;4577;48.704;9.000;2023-02-24T06:24:46;53.00;;;31.13;;
9082;SDS011;4577;48.704;9.000;2023-02-24T06:27:14;54.67;;;30.90;;
9082;SDS011;4577;48.704;9.000;2023-02-24T06:29:44;70.27;;;32.77;;
9082;SDS011;4577;48.704;9.000;2023-02-24T06:32:14;101.20;;;36.23;;
9082;SDS011;4577;48.704;9.000;2023-02-24T06:34:40;121.80;;;38.97;;
9082;SDS011;4577;48.704;9.000;2023-02-24T06:37:06;101.43;;;38.20;;
9082;SDS011;4577;48.704;9.000;2023-02-24T06:39:34;67.90;;;32.60;;
9082;SDS011;4577;48.704;9.000;2023-02-24T06:42:01;158.47;;;38.80;;
9082;SDS011;4577;48.704;9.000;2023-02-24T06:44:32;81.73;;;34.47;;
9082;SDS011;4577;48.704;9.000;2023-02-24T06:46:59;65.13;;;34.83;;
9082;SDS011;4577;48.704;9.000;2023-02-24T06:49:25;187.80;;;47.33;;
9082;SDS011;4577;48.704;9.000;2023-02-24T06:51:52;71.07;;;34.13;;
9082;SDS011;4577;48.704;9.000;2023-02-24T06:54:22;65.83;;;32.90;;
9082;SDS011;4577;48.704;9.000;2023-02-24T06:56:50;65.87;;;33.43;;
9082;SDS011;4577;48.704;9.000;2023-02-24T06:59:16;106.00;;;39.77;;
9082;SDS011;4577;48.704;9.000;2023-02-24T07:01:52;65.43;;;34.50;;
9082;SDS011;4577;48.704;9.000;2023-02-24T07:04:19;62.67;;;33.90;;
9082;SDS011;4577;48.704;9.000;2023-02-24T07:06:49;63.63;;;32.63;;
9082;SDS011;4577;48.704;9.000;2023-02-24T07:09:19;68.37;;;34.50;;
9082;SDS011;4577;48.704;9.000;2023-02-24T07:11:47;62.80;;;31.67;;
9082;SDS011;4577;48.704;9.000;2023-02-24T07:14:16;54.60;;;31.17;;
9082;SDS011;4577;48.704;9.000;2023-02-24T07:16:46;64.70;;;32.90;;
9082;SDS011;4577;48.704;9.000;2023-02-24T07:19:18;78.53;;;40.90;;
9082;SDS011;4577;48.704;9.000;2023-02-24T07:21:46;107.30;;;39.00;;
9082;SDS011;4577;48.704;9.000;2023-02-24T07:24:20;58.07;;;30.60;;
9082;SDS011;4577;48.704;9.000;2023-02-24T07:26:55;55.80;;;29.70;;
9082;SDS011;4577;48.704;9.000;2023-02-24T07:29:26;106.37;;;35.70;;
9082;SDS011;4577;48.704;9.000;2023-02-24T07:31:53;63.20;;;30.20;;
9082;SDS011;4577;48.704;9.000;2023-02-24T07:34:22;56.33;;;30.60;;
9082;SDS011;4577;48.704;9.000;2023-02-24T07:36:50;66.53;;;31.73;;
9082;SDS011;4577;48.704;9.000;2023-02-24T07:39:16;49.50;;;26.07;;
9082;SDS011;4577;48.704;9.000;2023-02-24T07:41:43;51.90;;;26.60;;
9082;SDS011;4577;48.704;9.000;2023-02-24T07:44:10;49.73;;;26.47;;
9082;SDS011;4577;48.704;9.000;2023-02-24T07:46:37;47.97;;;27.13;;
9082;SDS011;4577;48.704;9.000;2023-02-24T07:49:05;51.13;;;27.20;;
9082;SDS011;4577;48.704;9.000;2023-02-24T07:51:33;50.67;;;26.80;;
9082;SDS011;4577;48.704;9.000;2023-02-24T07:54:01;47.00;;;26.97;;
9082;SDS011;4577;48.704;9.000;2023-02-24T07:56:29;51.17;;;26.40;;
9082;SDS011;4577;48.704;9.000;2023-02-24T07:58:57;51.40;;;27.60;;
9082;SDS011;4577;48.704;9.000;2023-02-24T08:01:25;55.13;;;26.33;;
9082;SDS011;4577;48.704;9.000;2023-02-24T08:03:56;50.37;;;26.00;;
9082;SDS011;4577;48.704;9.000;2023-02-24T08:06:29;52.23;;;26.90;;
9082;SDS011;4577;48.704;9.000;2023-02-24T08:09:06;48.23;;;25.47;;
9082;SDS011;4577;48.704;9.000;2023-02-24T08:11:47;48.23;;;26.80;;
9082;SDS011;4577;48.704;9.000;2023-02-24T08:14:18;44.03;;;25.10;;
9082;SDS011;4577;48.704;9.000;2023-02-24T08:16:45;49.07;;;27.17;;
9082;SDS011;4577;48.704;9.000;2023-02-24T08:19:14;46.10;;;25.50;;
9082;SDS011;4577;48.704;9.000;2023-02-24T08:21:45;46.00;;;26.20;;
9082;SDS011;4577;48.704;9.000;2023-02-24T08:24:19;42.47;;;25.07;;
9082;SDS011;4577;48.704;9.000;2023-02-24T08:26:52;50.13;;;26.67;;
9082;SDS011;4577;48.704;9.000;2023-02-24T08:29:31;41.03;;;25.27;;
9082;SDS011;4577;48.704;9.000;2023-02-24T08:32:04;49.93;;;28.10;;
9082;SDS011;4577;48.704;9.000;2023-02-24T08:34:30;46.60;;;26.53;;
9082;SDS011;4577;48.704;9.000;2023-02-24T08:36:56;44.23;;;23.73;;
9082;SDS011;4577;48.704;9.000;2023-02-24T08:39:23;39.50;;;23.27;;
9082;SDS011;4577;48.704;9.000;2023-02-24T08:41:53;42.00;;;23.67;;
9082;SDS011;4577;48.704;9.000;2023-02-24T08:44:19;43.17;;;22.93;;
9082;SDS011;4577;48.704;9.000;2023-02-24T08:46:46;40.43;;;22.13;;
9082;SDS011;4577;48.704;9.000;2023-02-24T08:49:16;40.40;;;22.33;;
9082;SDS011;4577;48.704;9.000;2023-02-24T08:51:45;38.80;;;22.17;;
9082;SDS011;4577;48.704;9.000;2023-02-24T08:54:16;37.23;;;22.73;;
9082;SDS011;4577;48.704;9.000;2023-02-24T08:56:51;37.73;;;21.77;;
9082;SDS011;4577;48.704;9.000;2023-02-24T08:59:23;44.50;;;22.37;;
9082;SDS011;4577;48.704;9.000;2023-02-24T09:02:12;40.00;;;20.37;;
9082;SDS011;4577;48.704;9.000;2023-02-24T09:04:43;39.87;;;20.60;;
9082;SDS011;4577;48.704;9.000;2023-02-24T09:07:17;37.00;;;20.27;;
9082;SDS011;4577;48.704;9.000;2023-02-24T09:09:54;36.80;;;20.07;;
9082;SDS011;4577;48.704;9.000;2023-02-24T09:12:23;41.53;;;20.50;;
9082;SDS011;4577;48.704;9.000;2023-02-24T09:14:57;39.70;;;19.93;;
9082;SDS011;4577;48.704;9.000;2023-02-24T09:17:28;35.73;;;17.93;;
9082;SDS011;4577;48.704;9.000;2023-02-24T09:20:11;43.77;;;20.60;;
9082;SDS011;4577;48.704;9.000;2023-02-24T09:22:58;44.93;;;20.63;;
9082;SDS011;4577;48.704;9.000;2023-02-24T09:25:32;42.13;;;20.00;;
9082;SDS011;4577;48.704;9.000;2023-02-24T09:28:19;43.63;;;20.83;;
9082;SDS011;4577;48.704;9.000;2023-02-24T09:33:37;39.80;;;17.93;;
9082;SDS011;4577;48.704;9.000;2023-02-24T09:36:04;32.00;;;17.00;;
9082;SDS011;4577;48.704;9.000;2023-02-24T09:38:34;28.70;;;15.67;;
9082;SDS011;4577;48.704;9.000;2023-02-24T09:41:23;34.50;;;17.20;;
9082;SDS011;4577;48.704;9.000;2023-02-24T09:44:23;26.43;;;14.00;;
9082;SDS011;4577;48.704;9.000;2023-02-24T09:46:53;31.10;;;15.93;;
9082;SDS011;4577;48.704;9.000;2023-02-24T09:49:25;27.20;;;13.13;;
9082;SDS011;4577;48.704;9.000;2023-02-24T09:52:06;26.23;;;10.80;;
9082;SDS011;4577;48.704;9.000;2023-02-24T09:54:41;29.03;;;10.70;;
9082;SDS011;4577;48.704;9.000;2023-02-24T09:57:17;25.60;;;10.43;;
9082;SDS011;4577;48.704;9.000;2023-02-24T09:59:53;27.17;;;10.90;;
9082;SDS011;4577;48.704;9.000;2023-02-24T10:02:49;29.27;;;10.70;;
9082;SDS011;4577;48.704;9.000;2023-02-24T10:05:30;22.50;;;9.87;;
9082;SDS011;4577;48.704;9.000;2023-02-24T10:08:03;29.40;;;9.50;;
9082;SDS011;4577;48.704;9.000;2023-02-24T10:10:37;27.20;;;10.33;;
9082;SDS011;4577;48.704;9.000;2023-02-24T10:13:21;21.53;;;10.00;;
9082;SDS011;4577;48.704;9.000;2023-02-24T10:15:54;28.47;;;9.93;;
9082;SDS011;4577;48.704;9.000;2023-02-24T10:24:36;21.50;;;8.87;;
9082;SDS011;4577;48.704;9.000;2023-02-24T10:34:58;24.13;;;9.27;;
9082;SDS011;4577;48.704;9.000;2023-02-24T10:37:25;33.37;;;9.23;;
9082;SDS011;4577;48.704;9.000;2023-02-24T10:39:59;18.13;;;8.07;;
9082;SDS011;4577;48.704;9.000;2023-02-24T10:42:33;21.10;;;9.23;;
9082;SDS011;4577;48.704;9.000;2023-02-24T10:47:49;55.17;;;12.70;;
9082;SDS011;4577;48.704;9.000;2023-02-24T10:52:47;38.20;;;11.97;;
9082;SDS011;4577;48.704;9.000;2023-02-24T10:58:10;26.87;;;12.77;;
9082;SDS011;4577;48.704;9.000;2023-02-24T11:01:12;35.30;;;13.97;;
9082;SDS011;4577;48.704;9.000;2023-02-24T11:03:52;23.67;;;12.90;;
9082;SDS011;4577;48.704;9.000;2023-02-24T11:06:26;26.50;;;13.73;;
9082;SDS011;4577;48.704;9.000;2023-02-24T11:09:15;31.73;;;13.73;;
9082;SDS011;4577;48.704;9.000;2023-02-24T11:11:54;27.90;;;15.13;;
9082;SDS011;4577;48.704;9.000;2023-02-24T11:14:48;34.27;;;14.13;;
9082;SDS011;4577;48.704;9.000;2023-02-24T11:17:45;29.77;;;14.87;;
9082;SDS011;4577;48.704;9.000;2023-02-24T11:20:26;36.43;;;14.47;;
9082;SDS011;4577;48.704;9.000;2023-02-24T11:23:08;35.60;;;16.17;;
9082;SDS011;4577;48.704;9.000;2023-02-24T11:25:42;35.27;;;16.30;;
9082;SDS011;4577;48.704;9.000;2023-02-24T11:31:02;33.40;;;15.20;;
9082;SDS011;4577;48.704;9.000;2023-02-24T11:36:26;41.33;;;15.80;;
9082;SDS011;4577;48.704;9.000;2023-02-24T11:41:52;29.30;;;15.37;;
9082;SDS011;4577;48.704;9.000;2023-02-24T11:46:48;27.37;;;14.40;;
9082;SDS011;4577;48.704;9.000;2023-02-24T11:52:07;34.57;;;15.00;;
9082;SDS011;4577;48.704;9.000;2023-02-24T11:54:44;42.47;;;15.50;;
9082;SDS011;4577;48.704;9.000;2023-02-24T11:57:20;37.77;;;18.10;;
9082;SDS011;4577;48.704;9.000;2023-02-24T12:05:18;32.70;;;13.23;;
9082;SDS011;4577;48.704;9.000;2023-02-24T12:08:02;33.60;;;12.50;;
9082;SDS011;4577;48.704;9.000;2023-02-24T12:10:35;26.73;;;12.00;;
9082;SDS011;4577;48.704;9.000;2023-02-24T12:15:54;23.17;;;12.23;;
9082;SDS011;4577;48.704;9.000;2023-02-24T12:18:30;24.90;;;12.60;;
9082;SDS011;4577;48.704;9.000;2023-02-24T12:21:02;33.73;;;13.77;;
9082;SDS011;4577;48.704;9.000;2023-02-24T12:35:11;44.07;;;10.67;;
9082;SDS011;4577;48.704;9.000;2023-02-24T12:43:33;22.97;;;9.17;;
9082;SDS011;4577;48.704;9.000;2023-02-24T12:51:41;26.03;;;10.60;;
9082;SDS011;4577;48.704;9.000;2023-02-24T12:54:38;27.33;;;10.13;;
9082;SDS011;4577;48.704;9.000;2023-02-24T13:06:08;31.07;;;10.30;;
9082;SDS011;4577;48.704;9.000;2023-02-24T13:08:51;29.00;;;9.53;;
9082;SDS011;4577;48.704;9.000;2023-02-24T13:14:27;20.83;;;9.30;;
9082;SDS011;4577;48.704;9.000;2023-02-24T13:19:40;27.40;;;9.37;;
9082;SDS011;4577;48.704;9.000;2023-02-24T13:29:52;29.93;;;10.30;;
9082;SDS011;4577;48.704;9.000;2023-02-24T13:32:29;30.43;;;9.07;;
9082;SDS011;4577;48.704;9.000;2023-02-24T13:37:41;31.33;;;8.97;;
9082;SDS011;4577;48.704;9.000;2023-02-24T13:42:40;28.83;;;8.23;;
9082;SDS011;4577;48.704;9.000;2023-02-24T14:01:44;22.63;;;7.80;;
9082;SDS011;4577;48.704;9.000;2023-02-24T14:04:20;40.47;;;9.37;;
9082;SDS011;4577;48.704;9.000;2023-02-24T14:06:52;24.50;;;6.83;;
9082;SDS011;4577;48.704;9.000;2023-02-24T14:09:23;23.53;;;6.53;;
9082;SDS011;4577;48.704;9.000;2023-02-24T14:11:54;18.17;;;7.03;;
9082;SDS011;4577;48.704;9.000;2023-02-24T14:14:24;22.70;;;6.83;;
9082;SDS011;4577;48.704;9.000;2023-02-24T14:16:51;23.53;;;7.40;;
9082;SDS011;4577;48.704;9.000;2023-02-24T14:19:17;18.83;;;7.20;;
9082;SDS011;4577;48.704;9.000;2023-02-24T14:21:47;24.00;;;7.20;;
9082;SDS011;4577;48.704;9.000;2023-02-24T14:24:17;24.70;;;7.13;;
9082;SDS011;4577;48.704;9.000;2023-02-24T14:26:54;29.67;;;7.17;;
9082;SDS011;4577;48.704;9.000;2023-02-24T14:29:21;21.10;;;6.87;;
9082;SDS011;4577;48.704;9.000;2023-02-24T14:31:56;19.80;;;7.10;;
9082;SDS011;4577;48.704;9.000;2023-02-24T14:34:24;19.70;;;6.40;;
9082;SDS011;4577;48.704;9.000;2023-02-24T14:37:01;19.57;;;7.10;;
9082;SDS011;4577;48.704;9.000;2023-02-24T14:39:31;22.83;;;7.33;;
9082;SDS011;4577;48.704;9.000;2023-02-24T14:47:41;21.57;;;7.60;;
9082;SDS011;4577;48.704;9.000;2023-02-24T14:50:13;27.70;;;7.43;;
9082;SDS011;4577;48.704;9.000;2023-02-24T14:52:42;23.97;;;7.20;;
9082;SDS011;4577;48.704;9.000;2023-02-24T14:55:26;31.40;;;8.43;;
9082;SDS011;4577;48.704;9.000;2023-02-24T15:00:25;28.93;;;6.63;;
9082;SDS011;4577;48.704;9.000;2023-02-24T15:02:59;19.07;;;7.17;;
9082;SDS011;4577;48.704;9.000;2023-02-24T15:05:46;22.80;;;7.20;;
9082;SDS011;4577;48.704;9.000;2023-02-24T15:08:58;19.70;;;7.53;;
9082;SDS011;4577;48.704;9.000;2023-02-24T15:13:42;20.47;;;7.30;;
9082;SDS011;4577;48.704;9.000;2023-02-24T15:16:20;19.50;;;6.97;;
9082;SDS011;4577;48.704;9.000;2023-02-24T15:18:55;15.10;;;7.10;;
9082;SDS011;4577;48.704;9.000;2023-02-24T15:21:22;30.47;;;7.50;;
9082;SDS011;4577;48.704;9.000;2023-02-24T15:24:00;27.60;;;6.70;;
9082;SDS011;4577;48.704;9.000;2023-02-24T15:26:29;25.43;;;6.97;;
9082;SDS011;4577;48.704;9.000;2023-02-24T15:28:58;23.80;;;7.20;;
9082;SDS011;4577;48.704;9.000;2023-02-24T15:31:25;20.33;;;7.17;;
9082;SDS011;4577;48.704;9.000;2023-02-24T15:33:54;21.80;;;7.33;;
9082;SDS011;4577;48.704;9.000;2023-02-24T15:36:34;17.30;;;6.57;;
9082;SDS011;4577;48.704;9.000;2023-02-24T15:39:04;24.13;;;7.87;;
9082;SDS011;4577;48.704;9.000;2023-02-24T15:41:43;21.17;;;7.70;;
9082;SDS011;4577;48.704;9.000;2023-02-24T15:44:27;28.77;;;7.50;;
9082;SDS011;4577;48.704;9.000;2023-02-24T15:46:55;17.97;;;6.70;;
9082;SDS011;4577;48.704;9.000;2023-02-24T15:49:22;17.50;;;7.67;;
9082;SDS011;4577;48.704;9.000;2023-02-24T15:51:49;27.53;;;8.13;;
9082;SDS011;4577;48.704;9.000;2023-02-24T15:54:29;28.83;;;7.90;;
9082;SDS011;4577;48.704;9.000;2023-02-24T15:56:58;20.00;;;8.10;;
9082;SDS011;4577;48.704;9.000;2023-02-24T15:59:25;28.90;;;8.43;;
9082;SDS011;4577;48.704;9.000;2023-02-24T16:01:51;18.97;;;8.40;;
9082;SDS011;4577;48.704;9.000;2023-02-24T16:04:17;20.50;;;9.10;;
9082;SDS011;4577;48.704;9.000;2023-02-24T16:06:43;21.20;;;9.00;;
9082;SDS011;4577;48.704;9.000;2023-02-24T16:09:39;27.07;;;9.47;;
9082;SDS011;4577;48.704;9.000;2023-02-24T16:12:15;24.80;;;9.77;;
9082;SDS011;4577;48.704;9.000;2023-02-24T16:14:44;22.20;;;9.57;;
9082;SDS011;4577;48.704;9.000;2023-02-24T16:17:57;31.20;;;10.93;;
9082;SDS011;4577;48.704;9.000;2023-02-24T16:19:58;30.73;;;10.10;;
9082;SDS011;4577;48.704;9.000;2023-02-24T16:22:25;24.87;;;10.40;;
9082;SDS011;4577;48.704;9.000;2023-02-24T16:24:51;29.17;;;10.57;;
9082;SDS011;4577;48.704;9.000;2023-02-24T16:27:18;26.73;;;11.10;;
9082;SDS011;4577;48.704;9.000;2023-02-24T16:29:46;23.47;;;10.00;;
9082;SDS011;4577;48.704;9.000;2023-02-24T16:32:13;23.07;;;9.60;;
9082;SDS011;4577;48.704;9.000;2023-02-24T16:34:40;28.13;;;10.87;;
9082;SDS011;4577;48.704;9.000;2023-02-24T16:37:13;29.60;;;10.83;;
9082;SDS011;4577;48.704;9.000;2023-02-24T16:39:41;25.63;;;10.23;;
9082;SDS011;4577;48.704;9.000;2023-02-24T16:42:08;26.47;;;10.37;;
9082;SDS011;4577;48.704;9.000;2023-02-24T16:44:34;22.37;;;10.87;;
9082;SDS011;4577;48.704;9.000;2023-02-24T16:47:01;24.47;;;11.80;;
9082;SDS011;4577;48.704;9.000;2023-02-24T16:49:27;22.23;;;11.37;;
9082;SDS011;4577;48.704;9.000;2023-02-24T16:51:53;23.30;;;11.57;;
9082;SDS011;4577;48.704;9.000;2023-02-24T16:54:18;36.13;;;13.83;;
9082;SDS011;4577;48.704;9.000;2023-02-24T16:56:53;40.97;;;13.70;;
9082;SDS011;4577;48.704;9.000;2023-02-24T16:59:19;27.50;;;10.80;;
9082;SDS011;4577;48.704;9.000;2023-02-24T17:01:44;16.40;;;9.00;;
9082;SDS011;4577;48.704;9.000;2023-02-24T17:04:11;20.47;;;9.60;;
9082;SDS011;4577;48.704;9.000;2023-02-24T17:06:38;16.97;;;9.00;;
9082;SDS011;4577;48.704;9.000;2023-02-24T17:09:04;22.57;;;9.77;;
9082;SDS011;4577;48.704;9.000;2023-02-24T17:11:30;17.80;;;9.90;;
9082;SDS011;4577;48.704;9.000;2023-02-24T17:13:57;21.37;;;10.00;;
9082;SDS011;4577;48.704;9.000;2023-02-24T17:16:23;14.90;;;9.17;;
9082;SDS011;4577;48.704;9.000;2023-02-24T17:18:49;22.00;;;9.50;;
9082;SDS011;4577;48.704;9.000;2023-02-24T17:21:15;15.33;;;8.60;;
9082;SDS011;4577;48.704;9.000;2023-02-24T17:23:42;15.40;;;8.47;;
9082;SDS011;4577;48.704;9.000;2023-02-24T17:26:08;14.20;;;7.17;;
9082;SDS011;4577;48.704;9.000;2023-02-24T17:28:39;21.47;;;9.07;;
9082;SDS011;4577;48.704;9.000;2023-02-24T17:31:04;21.60;;;9.90;;
9082;SDS011;4577;48.704;9.000;2023-02-24T17:33:31;25.37;;;9.20;;
9082;SDS011;4577;48.704;9.000;2023-02-24T17:35:57;14.87;;;7.97;;
9082;SDS011;4577;48.704;9.000;2023-02-24T17:38:24;15.90;;;7.20;;
9082;SDS011;4577;48.704;9.000;2023-02-24T17:40:50;13.00;;;6.80;;
9082;SDS011;4577;48.704;9.000;2023-02-24T17:43:16;14.80;;;7.10;;
9082;SDS011;4577;48.704;9.000;2023-02-24T17:45:43;22.63;;;9.03;;
9082;SDS011;4577;48.704;9.000;2023-02-24T17:48:10;18.53;;;8.43;;
9082;SDS011;4577;48.704;9.000;2023-02-24T17:50:39;27.10;;;8.50;;
9082;SDS011;4577;48.704;9.000;2023-02-24T17:53:06;23.93;;;11.27;;
9082;SDS011;4577;48.704;9.000;2023-02-24T17:55:32;34.00;;;14.33;;
9082;SDS011;4577;48.704;9.000;2023-02-24T17:57:58;16.73;;;8.40;;
9082;SDS011;4577;48.704;9.000;2023-02-24T18:00:25;14.37;;;7.00;;
9082;SDS011;4577;48.704;9.000;2023-02-24T18:02:52;12.70;;;6.40;;
9082;SDS011;4577;48.704;9.000;2023-02-24T18:05:18;10.47;;;5.50;;
9082;SDS011;4577;48.704;9.000;2023-02-24T18:07:44;8.77;;;4.20;;
9082;SDS011;4577;48.704;9.000;2023-02-24T18:10:10;5.77;;;3.57;;
9082;SDS011;4577;48.704;9.000;2023-02-24T18:12:36;8.10;;;4.23;;